PWSweather.com
Personal Weather Stations
Station Observations
IONTARIO88
Lincoln, ON L0R

Lincoln, ON L0R

Lat: 43.1763563, Lon: -79.4719525

Elevation: 297

Station Type: Davis Vantage Pro 2 Plus

http://www.beamsvillewx.ca

High Low Average
Temperature 22.6°F-5.2°C 11.8°F-11.2°C 17.6°F-8.0°C
Dew Point 15.0°F-9.4°C 7.4°F-13.7°C 11.3°F-11.5°C
Winds 10.0 mph 16.1 kmh 1.0 mph 1.6 kmh 5.0 mph WSW8.0 kmh WSW
Wind Gusts 23.0 mph37.0 kmh 5.0 mph8.0 kmh 11.0 mph17.7 kmh
Humidity 83% 61% 76%
Pressure 30.43 in1030.5 mb 30.32 in1026.8 mb -
Precipitation 0.00 in0.0 mm - -
Hour Temp Dew Point Humidity Winds Wind Gusts Pressure Precip Precip Rate Daily Precip Total
12:00 AM 16.2°F-8.8°C 11.4°F-11.4°C 81% 6.0 mph W9.7 kmh W 9.0 mph14.5 kmh 30.33 in1027.1 mb 0.00 in0.0 mm 0.00 in0.0 mm 0.25 in6.4 mm
12:15 AM 16.2°F-8.8°C 11.4°F-11.4°C 81% 5.0 mph W8.0 kmh W 9.0 mph14.5 kmh 30.33 in1027.1 mb 0.00 in0.0 mm 0.00 in0.0 mm 0.25 in6.4 mm
12:30 AM 16.3°F-8.7°C 11.5°F-11.4°C 81% 5.0 mph W8.0 kmh W 11.0 mph17.7 kmh 30.34 in1027.4 mb 0.00 in0.0 mm 0.00 in0.0 mm 0.25 in6.4 mm
12:45 AM 16.3°F-8.7°C 11.8°F-11.2°C 82% 6.0 mph W9.7 kmh W 11.0 mph17.7 kmh 30.34 in1027.4 mb 0.00 in0.0 mm 0.00 in0.0 mm 0.25 in6.4 mm
01:00 AM 16.2°F-8.8°C 11.4°F-11.4°C 81% 6.0 mph W9.7 kmh W 12.0 mph19.3 kmh 30.34 in1027.4 mb 0.00 in0.0 mm 0.00 in0.0 mm 0.00 in0.0 mm
01:15 AM 16.0°F-8.9°C 11.2°F-11.6°C 81% 5.0 mph W8.0 kmh W 9.0 mph14.5 kmh 30.34 in1027.4 mb 0.00 in0.0 mm 0.00 in0.0 mm 0.00 in0.0 mm
01:30 AM 15.4°F-9.2°C 10.7°F-11.8°C 81% 5.0 mph WNW8.0 kmh WNW 9.0 mph14.5 kmh 30.33 in1027.1 mb 0.00 in0.0 mm 0.00 in0.0 mm 0.00 in0.0 mm
01:45 AM 14.5°F-9.7°C 9.8°F-12.3°C 81% 5.0 mph WNW8.0 kmh WNW 8.0 mph12.9 kmh 30.32 in1026.8 mb 0.00 in0.0 mm 0.00 in0.0 mm 0.00 in0.0 mm
02:00 AM 14.2°F-9.9°C 9.4°F-12.6°C 81% 3.0 mph WNW4.8 kmh WNW 6.0 mph9.7 kmh 30.32 in1026.8 mb 0.00 in0.0 mm 0.00 in0.0 mm 0.00 in0.0 mm
02:15 AM 14.4°F-9.8°C 9.6°F-12.4°C 81% 3.0 mph WNW4.8 kmh WNW 7.0 mph11.3 kmh 30.33 in1027.1 mb 0.00 in0.0 mm 0.00 in0.0 mm 0.00 in0.0 mm
02:30 AM 14.2°F-9.9°C 9.1°F-12.7°C 80% 4.0 mph WNW6.4 kmh WNW 7.0 mph11.3 kmh 30.34 in1027.4 mb 0.00 in0.0 mm 0.00 in0.0 mm 0.00 in0.0 mm
02:45 AM 13.8°F-10.1°C 8.8°F-12.9°C 80% 4.0 mph W6.4 kmh W 8.0 mph12.9 kmh 30.34 in1027.4 mb 0.00 in0.0 mm 0.00 in0.0 mm 0.00 in0.0 mm
03:00 AM 14.0°F-10.0°C 9.0°F-12.8°C 80% 6.0 mph W9.7 kmh W 11.0 mph17.7 kmh 30.34 in1027.4 mb 0.00 in0.0 mm 0.00 in0.0 mm 0.00 in0.0 mm
03:15 AM 13.8°F-10.1°C 8.8°F-12.9°C 80% 5.0 mph W8.0 kmh W 8.0 mph12.9 kmh 30.34 in1027.4 mb 0.00 in0.0 mm 0.00 in0.0 mm 0.00 in0.0 mm
03:30 AM 13.6°F-10.2°C 8.6°F-13.0°C 80% 4.0 mph WNW6.4 kmh WNW 8.0 mph12.9 kmh 30.34 in1027.4 mb 0.00 in0.0 mm 0.00 in0.0 mm 0.00 in0.0 mm
03:45 AM 14.2°F-9.9°C 9.1°F-12.7°C 80% 4.0 mph W6.4 kmh W 8.0 mph12.9 kmh 30.35 in1027.8 mb 0.00 in0.0 mm 0.00 in0.0 mm 0.00 in0.0 mm
04:00 AM 14.4°F-9.8°C 9.3°F-12.6°C 80% 4.0 mph WNW6.4 kmh WNW 8.0 mph12.9 kmh 30.35 in1027.8 mb 0.00 in0.0 mm 0.00 in0.0 mm 0.00 in0.0 mm
04:15 AM 14.4°F-9.8°C 9.3°F-12.6°C 80% 4.0 mph W6.4 kmh W 10.0 mph16.1 kmh 30.35 in1027.8 mb 0.00 in0.0 mm 0.00 in0.0 mm 0.00 in0.0 mm
04:30 AM 14.2°F-9.9°C 9.1°F-12.7°C 80% 4.0 mph W6.4 kmh W 8.0 mph12.9 kmh 30.34 in1027.4 mb 0.00 in0.0 mm 0.00 in0.0 mm 0.00 in0.0 mm
04:45 AM 14.0°F-10.0°C 9.0°F-12.8°C 80% 3.0 mph W4.8 kmh W 7.0 mph11.3 kmh 30.34 in1027.4 mb 0.00 in0.0 mm 0.00 in0.0 mm 0.00 in0.0 mm
05:00 AM 14.0°F-10.0°C 9.0°F-12.8°C 80% 4.0 mph W6.4 kmh W 7.0 mph11.3 kmh 30.34 in1027.4 mb 0.00 in0.0 mm 0.00 in0.0 mm 0.00 in0.0 mm
05:15 AM 14.0°F-10.0°C 9.0°F-12.8°C 80% 1.0 mph W1.6 kmh W 5.0 mph8.0 kmh 30.35 in1027.8 mb 0.00 in0.0 mm 0.00 in0.0 mm 0.00 in0.0 mm
05:30 AM 14.4°F-9.8°C 9.6°F-12.4°C 81% 2.0 mph W3.2 kmh W 6.0 mph9.7 kmh 30.35 in1027.8 mb 0.00 in0.0 mm 0.00 in0.0 mm 0.00 in0.0 mm
05:45 AM 14.5°F-9.7°C 9.8°F-12.3°C 81% 2.0 mph W3.2 kmh W 6.0 mph9.7 kmh 30.35 in1027.8 mb 0.00 in0.0 mm 0.00 in0.0 mm 0.00 in0.0 mm
06:00 AM 14.7°F-9.6°C 9.9°F-12.3°C 81% 2.0 mph W3.2 kmh W 5.0 mph8.0 kmh 30.35 in1027.8 mb 0.00 in0.0 mm 0.00 in0.0 mm 0.00 in0.0 mm
06:15 AM 14.7°F-9.6°C 9.9°F-12.3°C 81% 3.0 mph WSW4.8 kmh WSW 7.0 mph11.3 kmh 30.35 in1027.8 mb 0.00 in0.0 mm 0.00 in0.0 mm 0.00 in0.0 mm
06:30 AM 14.7°F-9.6°C 9.9°F-12.3°C 81% 2.0 mph WSW3.2 kmh WSW 8.0 mph12.9 kmh 30.35 in1027.8 mb 0.00 in0.0 mm 0.00 in0.0 mm 0.00 in0.0 mm
06:45 AM 14.7°F-9.6°C 9.9°F-12.3°C 81% 1.0 mph WSW1.6 kmh WSW 5.0 mph8.0 kmh 30.35 in1027.8 mb 0.00 in0.0 mm 0.00 in0.0 mm 0.00 in0.0 mm
07:00 AM 14.5°F-9.7°C 9.8°F-12.3°C 81% 3.0 mph WSW4.8 kmh WSW 8.0 mph12.9 kmh 30.36 in1028.1 mb 0.00 in0.0 mm 0.00 in0.0 mm 0.00 in0.0 mm
07:15 AM 14.2°F-9.9°C 9.4°F-12.6°C 81% 3.0 mph WSW4.8 kmh WSW 9.0 mph14.5 kmh 30.36 in1028.1 mb 0.00 in0.0 mm 0.00 in0.0 mm 0.00 in0.0 mm
07:30 AM 14.0°F-10.0°C 9.5°F-12.5°C 82% 3.0 mph WSW4.8 kmh WSW 8.0 mph12.9 kmh 30.36 in1028.1 mb 0.00 in0.0 mm 0.00 in0.0 mm 0.00 in0.0 mm
07:45 AM 14.2°F-9.9°C 9.7°F-12.4°C 82% 2.0 mph WSW3.2 kmh WSW 5.0 mph8.0 kmh 30.36 in1028.1 mb 0.00 in0.0 mm 0.00 in0.0 mm 0.00 in0.0 mm
08:00 AM 14.0°F-10.0°C 9.5°F-12.5°C 82% 3.0 mph WSW4.8 kmh WSW 5.0 mph8.0 kmh 30.37 in1028.4 mb 0.00 in0.0 mm 0.00 in0.0 mm 0.00 in0.0 mm
08:15 AM 13.5°F-10.3°C 9.0°F-12.8°C 82% 3.0 mph WSW4.8 kmh WSW 8.0 mph12.9 kmh 30.37 in1028.4 mb 0.00 in0.0 mm 0.00 in0.0 mm 0.00 in0.0 mm
08:30 AM 12.7°F-10.7°C 8.6°F-13.0°C 83% 3.0 mph WSW4.8 kmh WSW 6.0 mph9.7 kmh 30.38 in1028.8 mb 0.00 in0.0 mm 0.00 in0.0 mm 0.00 in0.0 mm
08:45 AM 12.2°F-11.0°C 8.0°F-13.3°C 83% 3.0 mph WSW4.8 kmh WSW 8.0 mph12.9 kmh 30.38 in1028.8 mb 0.00 in0.0 mm 0.00 in0.0 mm 0.00 in0.0 mm
09:00 AM 11.8°F-11.2°C 7.7°F-13.5°C 83% 3.0 mph WSW4.8 kmh WSW 6.0 mph9.7 kmh 30.39 in1029.1 mb 0.00 in0.0 mm 0.00 in0.0 mm 0.00 in0.0 mm
09:15 AM 11.8°F-11.2°C 7.4°F-13.7°C 82% 2.0 mph WSW3.2 kmh WSW 6.0 mph9.7 kmh 30.39 in1029.1 mb 0.00 in0.0 mm 0.00 in0.0 mm 0.00 in0.0 mm
09:30 AM 12.0°F-11.1°C 7.6°F-13.6°C 82% 2.0 mph WSW3.2 kmh WSW 5.0 mph8.0 kmh 30.39 in1029.1 mb 0.00 in0.0 mm 0.00 in0.0 mm 0.00 in0.0 mm
09:45 AM 12.4°F-10.9°C 7.9°F-13.4°C 82% 2.0 mph WSW3.2 kmh WSW 6.0 mph9.7 kmh 30.39 in1029.1 mb 0.00 in0.0 mm 0.00 in0.0 mm 0.00 in0.0 mm
10:00 AM 13.3°F-10.4°C 8.8°F-12.9°C 82% 3.0 mph W4.8 kmh W 7.0 mph11.3 kmh 30.40 in1029.5 mb 0.00 in0.0 mm 0.00 in0.0 mm 0.00 in0.0 mm
10:15 AM 14.5°F-9.7°C 9.5°F-12.5°C 80% 3.0 mph W4.8 kmh W 8.0 mph12.9 kmh 30.40 in1029.5 mb 0.00 in0.0 mm 0.00 in0.0 mm 0.00 in0.0 mm
10:30 AM 16.0°F-8.9°C 10.3°F-12.1°C 78% 2.0 mph W3.2 kmh W 9.0 mph14.5 kmh 30.40 in1029.5 mb 0.00 in0.0 mm 0.00 in0.0 mm 0.00 in0.0 mm
10:45 AM 16.9°F-8.4°C 10.9°F-11.7°C 77% 3.0 mph WSW4.8 kmh WSW 7.0 mph11.3 kmh 30.40 in1029.5 mb 0.00 in0.0 mm 0.00 in0.0 mm 0.00 in0.0 mm
11:00 AM 16.3°F-8.7°C 10.4°F-12.0°C 77% 4.0 mph WSW6.4 kmh WSW 10.0 mph16.1 kmh 30.40 in1029.5 mb 0.00 in0.0 mm 0.00 in0.0 mm 0.00 in0.0 mm
11:15 AM 16.9°F-8.4°C 10.9°F-11.7°C 77% 3.0 mph W4.8 kmh W 8.0 mph12.9 kmh 30.40 in1029.5 mb 0.00 in0.0 mm 0.00 in0.0 mm 0.00 in0.0 mm
11:30 AM 18.1°F-7.7°C 11.2°F-11.6°C 74% 4.0 mph WSW6.4 kmh WSW 9.0 mph14.5 kmh 30.40 in1029.5 mb 0.00 in0.0 mm 0.00 in0.0 mm 0.00 in0.0 mm
11:45 AM 19.0°F-7.2°C 11.8°F-11.2°C 73% 5.0 mph SW8.0 kmh SW 10.0 mph16.1 kmh 30.39 in1029.1 mb 0.00 in0.0 mm 0.00 in0.0 mm 0.00 in0.0 mm
12:00 PM 19.6°F-6.9°C 12.0°F-11.1°C 72% 4.0 mph SW6.4 kmh SW 10.0 mph16.1 kmh 30.39 in1029.1 mb 0.00 in0.0 mm 0.00 in0.0 mm 0.00 in0.0 mm
12:15 PM 20.1°F-6.6°C 12.2°F-11.0°C 71% 4.0 mph SW6.4 kmh SW 10.0 mph16.1 kmh 30.39 in1029.1 mb 0.00 in0.0 mm 0.00 in0.0 mm 0.00 in0.0 mm
12:30 PM 20.7°F-6.3°C 12.7°F-10.7°C 71% 3.0 mph SW4.8 kmh SW 10.0 mph16.1 kmh 30.38 in1028.8 mb 0.00 in0.0 mm 0.00 in0.0 mm 0.00 in0.0 mm
12:45 PM 21.0°F-6.1°C 12.4°F-10.9°C 69% 5.0 mph SW8.0 kmh SW 12.0 mph19.3 kmh 30.38 in1028.8 mb 0.00 in0.0 mm 0.00 in0.0 mm 0.00 in0.0 mm
01:00 PM 21.2°F-6.0°C 12.9°F-10.6°C 70% 5.0 mph SW8.0 kmh SW 11.0 mph17.7 kmh 30.37 in1028.4 mb 0.00 in0.0 mm 0.00 in0.0 mm 0.00 in0.0 mm
01:15 PM 21.2°F-6.0°C 12.9°F-10.6°C 70% 6.0 mph SW9.7 kmh SW 13.0 mph20.9 kmh 30.36 in1028.1 mb 0.00 in0.0 mm 0.00 in0.0 mm 0.00 in0.0 mm
01:30 PM 21.9°F-5.6°C 13.6°F-10.2°C 70% 5.0 mph SW8.0 kmh SW 11.0 mph17.7 kmh 30.35 in1027.8 mb 0.00 in0.0 mm 0.00 in0.0 mm 0.00 in0.0 mm
01:45 PM 21.9°F-5.6°C 11.9°F-11.2°C 65% 8.0 mph WSW12.9 kmh WSW 17.0 mph27.4 kmh 30.35 in1027.8 mb 0.00 in0.0 mm 0.00 in0.0 mm 0.00 in0.0 mm
02:00 PM 21.7°F-5.7°C 11.4°F-11.4°C 64% 8.0 mph WSW12.9 kmh WSW 16.0 mph25.7 kmh 30.35 in1027.8 mb 0.00 in0.0 mm 0.00 in0.0 mm 0.00 in0.0 mm
02:15 PM 21.7°F-5.7°C 11.8°F-11.2°C 65% 10.0 mph WSW16.1 kmh WSW 23.0 mph37.0 kmh 30.34 in1027.4 mb 0.00 in0.0 mm 0.00 in0.0 mm 0.00 in0.0 mm
02:30 PM 21.7°F-5.7°C 11.8°F-11.2°C 65% 10.0 mph WSW16.1 kmh WSW 23.0 mph37.0 kmh 30.34 in1027.4 mb 0.00 in0.0 mm 0.00 in0.0 mm 0.00 in0.0 mm
02:45 PM 21.7°F-5.7°C 11.8°F-11.2°C 65% 9.0 mph WSW14.5 kmh WSW 18.0 mph29.0 kmh 30.34 in1027.4 mb 0.00 in0.0 mm 0.00 in0.0 mm 0.00 in0.0 mm
03:00 PM 21.7°F-5.7°C 10.7°F-11.8°C 62% 10.0 mph WSW16.1 kmh WSW 21.0 mph33.8 kmh 30.34 in1027.4 mb 0.00 in0.0 mm 0.00 in0.0 mm 0.00 in0.0 mm
03:15 PM 21.9°F-5.6°C 11.2°F-11.6°C 63% 9.0 mph WSW14.5 kmh WSW 19.0 mph30.6 kmh 30.33 in1027.1 mb 0.00 in0.0 mm 0.00 in0.0 mm 0.00 in0.0 mm
03:30 PM 22.6°F-5.2°C 11.6°F-11.3°C 62% 7.0 mph WSW11.3 kmh WSW 18.0 mph29.0 kmh 30.34 in1027.4 mb 0.00 in0.0 mm 0.00 in0.0 mm 0.00 in0.0 mm
03:45 PM 22.6°F-5.2°C 11.2°F-11.6°C 61% 10.0 mph WSW16.1 kmh WSW 20.0 mph32.2 kmh 30.34 in1027.4 mb 0.00 in0.0 mm 0.00 in0.0 mm 0.00 in0.0 mm
04:00 PM 22.5°F-5.3°C 11.0°F-11.7°C 61% 10.0 mph WSW16.1 kmh WSW 19.0 mph30.6 kmh 30.33 in1027.1 mb 0.00 in0.0 mm 0.00 in0.0 mm 0.00 in0.0 mm
04:15 PM 22.3°F-5.4°C 11.6°F-11.3°C 63% 9.0 mph WSW14.5 kmh WSW 16.0 mph25.7 kmh 30.33 in1027.1 mb 0.00 in0.0 mm 0.00 in0.0 mm 0.00 in0.0 mm
04:30 PM 21.9°F-5.6°C 11.2°F-11.6°C 63% 9.0 mph WSW14.5 kmh WSW 17.0 mph27.4 kmh 30.34 in1027.4 mb 0.00 in0.0 mm 0.00 in0.0 mm 0.00 in0.0 mm
04:45 PM 21.9°F-5.6°C 11.2°F-11.6°C 63% 8.0 mph WSW12.9 kmh WSW 16.0 mph25.7 kmh 30.34 in1027.4 mb 0.00 in0.0 mm 0.00 in0.0 mm 0.00 in0.0 mm
05:00 PM 21.9°F-5.6°C 11.2°F-11.6°C 63% 6.0 mph WSW9.7 kmh WSW 12.0 mph19.3 kmh 30.34 in1027.4 mb 0.00 in0.0 mm 0.00 in0.0 mm 0.00 in0.0 mm
05:15 PM 21.9°F-5.6°C 12.3°F-10.9°C 66% 9.0 mph WSW14.5 kmh WSW 22.0 mph35.4 kmh 30.35 in1027.8 mb 0.00 in0.0 mm 0.00 in0.0 mm 0.00 in0.0 mm
05:30 PM 21.7°F-5.7°C 12.5°F-10.8°C 67% 8.0 mph WSW12.9 kmh WSW 15.0 mph24.1 kmh 30.35 in1027.8 mb 0.00 in0.0 mm 0.00 in0.0 mm 0.00 in0.0 mm
05:45 PM 21.7°F-5.7°C 12.8°F-10.7°C 68% 8.0 mph WSW12.9 kmh WSW 16.0 mph25.7 kmh 30.35 in1027.8 mb 0.00 in0.0 mm 0.00 in0.0 mm 0.00 in0.0 mm
06:00 PM 20.8°F-6.2°C 12.9°F-10.6°C 71% 5.0 mph WSW8.0 kmh WSW 12.0 mph19.3 kmh 30.35 in1027.8 mb 0.00 in0.0 mm 0.00 in0.0 mm 0.00 in0.0 mm
06:15 PM 20.8°F-6.2°C 13.2°F-10.4°C 72% 5.0 mph WSW8.0 kmh WSW 11.0 mph17.7 kmh 30.36 in1028.1 mb 0.00 in0.0 mm 0.00 in0.0 mm 0.00 in0.0 mm
06:30 PM 20.3°F-6.5°C 12.7°F-10.7°C 72% 4.0 mph WSW6.4 kmh WSW 9.0 mph14.5 kmh 30.36 in1028.1 mb 0.00 in0.0 mm 0.00 in0.0 mm 0.00 in0.0 mm
06:45 PM 19.9°F-6.7°C 13.3°F-10.4°C 75% 7.0 mph WSW11.3 kmh WSW 13.0 mph20.9 kmh 30.37 in1028.4 mb 0.00 in0.0 mm 0.00 in0.0 mm 0.00 in0.0 mm
07:00 PM 19.6°F-6.9°C 14.1°F-9.9°C 79% 5.0 mph SW8.0 kmh SW 11.0 mph17.7 kmh 30.36 in1028.1 mb 0.00 in0.0 mm 0.00 in0.0 mm 0.00 in0.0 mm
07:15 PM 19.2°F-7.1°C 13.5°F-10.3°C 78% 5.0 mph SW8.0 kmh SW 11.0 mph17.7 kmh 30.37 in1028.4 mb 0.00 in0.0 mm 0.00 in0.0 mm 0.00 in0.0 mm
07:30 PM 18.9°F-7.3°C 13.4°F-10.3°C 79% 5.0 mph SW8.0 kmh SW 11.0 mph17.7 kmh 30.37 in1028.4 mb 0.00 in0.0 mm 0.00 in0.0 mm 0.00 in0.0 mm
07:45 PM 18.3°F-7.6°C 13.5°F-10.3°C 81% 5.0 mph SW8.0 kmh SW 10.0 mph16.1 kmh 30.37 in1028.4 mb 0.00 in0.0 mm 0.00 in0.0 mm 0.00 in0.0 mm
08:00 PM 18.1°F-7.7°C 13.8°F-10.1°C 83% 7.0 mph SW11.3 kmh SW 13.0 mph20.9 kmh 30.37 in1028.4 mb 0.00 in0.0 mm 0.00 in0.0 mm 0.00 in0.0 mm
08:15 PM 18.1°F-7.7°C 13.6°F-10.2°C 82% 7.0 mph SW11.3 kmh SW 12.0 mph19.3 kmh 30.38 in1028.8 mb 0.00 in0.0 mm 0.00 in0.0 mm 0.00 in0.0 mm
08:30 PM 18.3°F-7.6°C 13.5°F-10.3°C 81% 7.0 mph SW11.3 kmh SW 12.0 mph19.3 kmh 30.39 in1029.1 mb 0.00 in0.0 mm 0.00 in0.0 mm 0.00 in0.0 mm
08:45 PM 18.3°F-7.6°C 12.9°F-10.6°C 79% 6.0 mph SW9.7 kmh SW 13.0 mph20.9 kmh 30.39 in1029.1 mb 0.00 in0.0 mm 0.00 in0.0 mm 0.00 in0.0 mm
09:00 PM 18.7°F-7.4°C 13.0°F-10.6°C 78% 6.0 mph SW9.7 kmh SW 17.0 mph27.4 kmh 30.40 in1029.5 mb 0.00 in0.0 mm 0.00 in0.0 mm 0.00 in0.0 mm
09:15 PM 18.7°F-7.4°C 13.0°F-10.6°C 78% 7.0 mph SW11.3 kmh SW 16.0 mph25.7 kmh 30.40 in1029.5 mb 0.00 in0.0 mm 0.00 in0.0 mm 0.00 in0.0 mm
09:30 PM 18.5°F-7.5°C 12.8°F-10.7°C 78% 7.0 mph SW11.3 kmh SW 14.0 mph22.5 kmh 30.40 in1029.5 mb 0.00 in0.0 mm 0.00 in0.0 mm 0.00 in0.0 mm
09:45 PM 18.7°F-7.4°C 13.2°F-10.4°C 79% 8.0 mph WSW12.9 kmh WSW 14.0 mph22.5 kmh 30.41 in1029.8 mb 0.00 in0.0 mm 0.00 in0.0 mm 0.00 in0.0 mm
10:00 PM 18.5°F-7.5°C 13.1°F-10.5°C 79% 6.0 mph SW9.7 kmh SW 14.0 mph22.5 kmh 30.42 in1030.1 mb 0.00 in0.0 mm 0.00 in0.0 mm 0.00 in0.0 mm
10:15 PM 18.5°F-7.5°C 13.1°F-10.5°C 79% 8.0 mph WSW12.9 kmh WSW 14.0 mph22.5 kmh 30.42 in1030.1 mb 0.00 in0.0 mm 0.00 in0.0 mm 0.00 in0.0 mm
10:30 PM 18.5°F-7.5°C 13.4°F-10.3°C 80% 6.0 mph SW9.7 kmh SW 14.0 mph22.5 kmh 30.42 in1030.1 mb 0.00 in0.0 mm 0.00 in0.0 mm 0.00 in0.0 mm
10:45 PM 19.0°F-7.2°C 13.9°F-10.1°C 80% 6.0 mph SW9.7 kmh SW 14.0 mph22.5 kmh 30.42 in1030.1 mb 0.00 in0.0 mm 0.00 in0.0 mm 0.00 in0.0 mm
11:00 PM 19.6°F-6.9°C 14.4°F-9.8°C 80% 6.0 mph SW9.7 kmh SW 12.0 mph19.3 kmh 30.43 in1030.5 mb 0.00 in0.0 mm 0.00 in0.0 mm 0.00 in0.0 mm
11:15 PM 19.8°F-6.8°C 14.6°F-9.7°C 80% 6.0 mph SW9.7 kmh SW 10.0 mph16.1 kmh 30.43 in1030.5 mb 0.00 in0.0 mm 0.00 in0.0 mm 0.00 in0.0 mm
11:30 PM 19.9°F-6.7°C 14.8°F-9.6°C 80% 6.0 mph SW9.7 kmh SW 14.0 mph22.5 kmh 30.43 in1030.5 mb 0.00 in0.0 mm 0.00 in0.0 mm 0.00 in0.0 mm
11:45 PM 19.8°F-6.8°C 14.6°F-9.7°C 80% 7.0 mph SW11.3 kmh SW 16.0 mph25.7 kmh 30.43 in1030.5 mb 0.00 in0.0 mm 0.00 in0.0 mm 0.00 in0.0 mm